Terminal Aerodrome Forecast
Issued by NWS

Current Version | Previous Version | Graphics & Text | Print | Product List | Glossary On
Versions: 1 2 3 4 5 6 7 8 9 10 11 12 13 14 15 16 17 18 19 20 21 22 23 24 25 26 27 28 29 30 31 32 33
000
FTUS41 KILN 270100 AAA
TAFLUK
TAF AMD
KLUK 270142Z 2702/2724 20008KT P6SM SCT045 BKN200
     FM270600 21004KT 4SM BR SCT012
      TEMPO 2707/2711 1SM BR OVC006
     FM271400 21008KT P6SM FEW015
     FM272000 23010KT P6SM VCTS BKN040CB=

USA.gov is the U.S. government's official web portal to all federal, state and local government web resources and services.